Time;durP1;ratioP1;P1;durP2;ratioP2;P2;SDS_P1;SDS_P2;PMS_P1;PMS_P2;Temp;Humidity;BMP_temperature;BMP_pressure;BME280_temperature;BME280_humidity;BME280_pressure;Samples;Min_cycle;Max_cycle;Signal;HPM_P1;HPM_P2
2021/06/18 00:00:25;;;;;;;27.95;22.60;;;;;;;;;;4438106;32;20211;-72
2021/06/18 00:02:50;;;;;;;27.70;22.73;;;;;;;;;;4437460;32;20211;-72
2021/06/18 00:05:16;;;;;;;23.15;20.08;;;;;;;;;;4439114;32;20189;-73
2021/06/18 00:07:43;;;;;;;25.45;22.23;;;;;;;;;;4437538;32;20153;-72
2021/06/18 00:10:09;;;;;;;24.27;18.62;;;;;;;;;;4439281;32;20134;-72
2021/06/18 00:12:34;;;;;;;23.35;18.70;;;;;;;;;;4425594;32;20161;-72
2021/06/18 00:15:00;;;;;;;21.75;18.55;;;;;;;;;;4437800;32;20176;-74
2021/06/18 00:17:26;;;;;;;20.73;17.62;;;;;;;;;;4439487;32;20471;-73
2021/06/18 00:19:51;;;;;;;23.48;19.85;;;;;;;;;;4437087;32;20259;-73
2021/06/18 00:22:16;;;;;;;29.47;21.87;;;;;;;;;;4437641;32;20600;-74
2021/06/18 00:24:41;;;;;;;22.23;17.83;;;;;;;;;;4438691;32;20292;-72
2021/06/18 00:27:07;;;;;;;28.97;22.63;;;;;;;;;;4438147;32;20236;-73
2021/06/18 00:29:32;;;;;;;29.58;23.85;;;;;;;;;;4439367;32;20282;-73
2021/06/18 00:31:57;;;;;;;25.63;21.27;;;;;;;;;;4439263;32;20145;-73
2021/06/18 00:34:22;;;;;;;29.00;22.92;;;;;;;;;;4437946;32;20289;-73
2021/06/18 00:36:47;;;;;;;27.25;19.17;;;;;;;;;;4437161;32;20221;-73
2021/06/18 00:39:12;;;;;;;30.05;23.85;;;;;;;;;;4438706;32;20648;-73
2021/06/18 00:41:38;;;;;;;30.62;23.80;;;;;;;;;;4438411;32;20232;-73
2021/06/18 00:44:03;;;;;;;31.10;25.70;;;;;;;;;;4438427;32;20188;-73
2021/06/18 00:46:29;;;;;;;30.23;25.08;;;;;;;;;;4438495;32;20279;-72
2021/06/18 00:48:54;;;;;;;35.42;28.27;;;;;;;;;;4438690;32;20130;-72
2021/06/18 00:51:20;;;;;;;40.03;31.48;;;;;;;;;;4438359;32;20165;-71
2021/06/18 00:53:46;;;;;;;34.67;26.83;;;;;;;;;;4437777;32;20130;-73
2021/06/18 00:56:11;;;;;;;33.60;28.35;;;;;;;;;;4423201;32;20194;-72
2021/06/18 00:58:36;;;;;;;40.22;31.48;;;;;;;;;;4437020;32;20130;-72
2021/06/18 01:01:02;;;;;;;39.10;29.85;;;;;;;;;;4436669;32;20172;-72
2021/06/18 01:03:27;;;;;;;35.67;28.98;;;;;;;;;;4428349;32;20230;-70
2021/06/18 01:05:52;;;;;;;36.03;28.60;;;;;;;;;;4421590;32;20134;-71
2021/06/18 01:08:22;;;;;;;38.60;31.73;;;;;;;;;;4432736;32;20665;-72
2021/06/18 01:11:06;;;;;;;29.40;23.42;;;;;;;;;;4430417;32;20138;-71
2021/06/18 01:13:37;;;;;;;37.60;29.73;;;;;;;;;;4406558;32;20244;-72
2021/06/18 01:16:05;;;;;;;39.38;31.73;;;;;;;;;;4431328;32;20157;-72
2021/06/18 01:18:41;;;;;;;35.97;28.73;;;;;;;;;;4433935;32;20137;-71
2021/06/18 01:21:13;;;;;;;32.03;26.83;;;;;;;;;;4408996;32;20153;-72
2021/06/18 01:23:38;;;;;;;33.10;27.27;;;;;;;;;;4407086;32;20169;-71
2021/06/18 01:26:21;;;;;;;48.00;34.28;;;;;;;;;;4431305;32;20137;-72
2021/06/18 01:28:51;;;;;;;38.38;27.55;;;;;;;;;;4436271;32;20644;-72
2021/06/18 01:31:19;;;;;;;33.88;25.62;;;;;;;;;;4437994;32;20150;-72
2021/06/18 01:33:47;;;;;;;33.97;26.40;;;;;;;;;;4436136;32;20126;-71
2021/06/18 01:36:13;;;;;;;32.10;26.45;;;;;;;;;;4438083;32;20238;-72
2021/06/18 01:38:41;;;;;;;32.35;26.10;;;;;;;;;;4437261;32;20138;-72
2021/06/18 01:41:09;;;;;;;36.20;27.55;;;;;;;;;;4437793;32;20478;-71
2021/06/18 01:43:35;;;;;;;36.28;26.25;;;;;;;;;;4437425;32;20198;-73
2021/06/18 01:46:01;;;;;;;34.65;28.30;;;;;;;;;;4431924;32;20145;-71
2021/06/18 01:48:27;;;;;;;33.83;27.10;;;;;;;;;;4424994;32;20298;-71
2021/06/18 01:50:53;;;;;;;38.50;28.10;;;;;;;;;;4436979;32;20411;-72
2021/06/18 01:53:19;;;;;;;31.58;24.50;;;;;;;;;;4436835;32;20231;-71
2021/06/18 01:55:46;;;;;;;40.53;29.98;;;;;;;;;;4437275;32;20153;-72
2021/06/18 01:58:12;;;;;;;40.67;29.75;;;;;;;;;;4437459;32;20146;-72
2021/06/18 02:00:39;;;;;;;33.60;26.08;;;;;;;;;;4421787;32;20176;-72
2021/06/18 02:03:07;;;;;;;36.80;29.80;;;;;;;;;;4436076;32;20138;-71
2021/06/18 02:05:33;;;;;;;36.38;29.48;;;;;;;;;;4436370;32;20129;-72
2021/06/18 02:07:59;;;;;;;34.42;26.45;;;;;;;;;;4435640;32;20201;-72
2021/06/18 02:10:25;;;;;;;33.15;25.92;;;;;;;;;;4437854;32;20159;-71
2021/06/18 02:12:50;;;;;;;29.23;24.27;;;;;;;;;;4436173;32;20165;-72
2021/06/18 02:15:17;;;;;;;34.25;27.52;;;;;;;;;;4437289;32;20489;-72
2021/06/18 02:17:43;;;;;;;33.08;27.90;;;;;;;;;;4435530;32;20130;-71
2021/06/18 02:20:09;;;;;;;41.58;33.22;;;;;;;;;;4435823;32;20475;-72
2021/06/18 02:22:35;;;;;;;42.83;32.42;;;;;;;;;;4437723;32;20146;-72
2021/06/18 02:25:01;;;;;;;33.95;27.35;;;;;;;;;;4435290;32;20191;-73
2021/06/18 02:27:26;;;;;;;49.92;35.65;;;;;;;;;;4437068;32;20130;-72
2021/06/18 02:29:52;;;;;;;41.45;30.77;;;;;;;;;;4437000;32;20164;-72
2021/06/18 02:32:17;;;;;;;39.25;28.85;;;;;;;;;;4423339;32;20156;-73
2021/06/18 02:34:42;;;;;;;49.80;36.55;;;;;;;;;;4437252;32;20152;-71
2021/06/18 02:37:09;;;;;;;50.70;37.88;;;;;;;;;;4436642;32;20141;-70
2021/06/18 02:39:35;;;;;;;43.15;32.13;;;;;;;;;;4421601;32;20236;-70
2021/06/18 02:42:00;;;;;;;41.60;32.03;;;;;;;;;;4423168;32;20212;-69
2021/06/18 02:44:25;;;;;;;56.20;38.88;;;;;;;;;;4421284;32;20610;-70
2021/06/18 02:47:09;;;;;;;50.37;37.53;;;;;;;;;;4435581;32;20160;-70
2021/06/18 02:49:44;;;;;;;64.53;42.47;;;;;;;;;;4421109;32;20270;-71
2021/06/18 02:52:10;;;;;;;61.63;41.42;;;;;;;;;;4421574;32;20244;-70
2021/06/18 02:54:40;;;;;;;53.65;38.45;;;;;;;;;;4436169;32;20624;-70
2021/06/18 02:57:10;;;;;;;60.12;41.50;;;;;;;;;;4435759;32;20126;-70
2021/06/18 02:59:44;;;;;;;57.67;39.90;;;;;;;;;;4435648;32;20167;-70
2021/06/18 03:02:13;;;;;;;52.95;38.65;;;;;;;;;;4436335;32;20122;-71
2021/06/18 03:04:39;;;;;;;55.12;41.58;;;;;;;;;;4435234;32;20163;-70
2021/06/18 03:07:10;;;;;;;70.30;48.67;;;;;;;;;;4422013;32;20284;-70
2021/06/18 03:09:41;;;;;;;52.53;38.63;;;;;;;;;;4435476;32;20160;-69
2021/06/18 03:12:08;;;;;;;56.78;42.15;;;;;;;;;;4437039;32;20152;-69
2021/06/18 03:14:35;;;;;;;66.22;44.45;;;;;;;;;;4436839;32;20129;-70
2021/06/18 03:17:03;;;;;;;69.20;48.30;;;;;;;;;;4436050;32;20161;-70
2021/06/18 03:19:30;;;;;;;96.87;57.85;;;;;;;;;;4436470;32;20204;-71
2021/06/18 03:21:57;;;;;;;76.43;51.47;;;;;;;;;;4434841;32;20168;-70
2021/06/18 03:24:23;;;;;;;63.45;43.15;;;;;;;;;;4436673;32;20471;-70
2021/06/18 03:26:49;;;;;;;71.90;49.58;;;;;;;;;;4435470;32;20153;-70
2021/06/18 03:29:15;;;;;;;75.37;51.75;;;;;;;;;;4435322;32;20129;-70
2021/06/18 03:31:41;;;;;;;62.40;45.53;;;;;;;;;;4437053;32;20157;-70
2021/06/18 03:34:07;;;;;;;60.83;45.25;;;;;;;;;;4436327;32;20200;-70
2021/06/18 03:36:32;;;;;;;95.72;57.60;;;;;;;;;;4435309;32;20179;-69
2021/06/18 03:38:57;;;;;;;91.93;58.38;;;;;;;;;;4435372;32;20126;-71
2021/06/18 03:41:23;;;;;;;105.37;65.90;;;;;;;;;;4436213;32;20173;-70
2021/06/18 03:43:49;;;;;;;77.85;53.05;;;;;;;;;;4437013;32;20190;-70
2021/06/18 03:46:15;;;;;;;99.03;60.05;;;;;;;;;;4436646;32;20138;-70
2021/06/18 03:48:41;;;;;;;78.82;50.28;;;;;;;;;;4435082;32;20646;-70
2021/06/18 03:51:07;;;;;;;69.18;47.47;;;;;;;;;;4436729;32;20130;-70
2021/06/18 03:53:32;;;;;;;81.82;51.83;;;;;;;;;;4435973;32;20564;-70
2021/06/18 03:55:58;;;;;;;76.72;50.40;;;;;;;;;;4434612;32;20581;-70
2021/06/18 03:58:24;;;;;;;117.25;66.72;;;;;;;;;;4435547;32;20161;-70
2021/06/18 04:00:50;;;;;;;136.27;72.72;;;;;;;;;;4434326;32;20222;-71
2021/06/18 04:03:16;;;;;;;114.72;63.90;;;;;;;;;;4437022;32;20529;-71
2021/06/18 04:05:43;;;;;;;91.90;53.95;;;;;;;;;;4439079;32;20183;-71
2021/06/18 04:08:09;;;;;;;72.90;49.63;;;;;;;;;;4437669;32;20255;-71
2021/06/18 04:10:34;;;;;;;119.20;66.93;;;;;;;;;;4439155;32;20533;-72
2021/06/18 04:13:01;;;;;;;117.13;66.37;;;;;;;;;;4438534;32;20191;-71
2021/06/18 04:15:26;;;;;;;125.87;71.25;;;;;;;;;;4437743;32;20190;-70
2021/06/18 04:17:52;;;;;;;112.93;63.80;;;;;;;;;;4438826;32;20137;-71
2021/06/18 04:20:21;;;;;;;85.50;55.30;;;;;;;;;;4438942;32;20161;-70
2021/06/18 04:22:46;;;;;;;105.12;62.85;;;;;;;;;;4439104;32;20141;-71
2021/06/18 04:25:12;;;;;;;82.93;53.28;;;;;;;;;;4439150;32;20134;-71
2021/06/18 04:27:38;;;;;;;84.45;56.13;;;;;;;;;;4439248;32;20125;-71
2021/06/18 04:30:07;;;;;;;90.28;54.63;;;;;;;;;;4432202;32;20168;-71
2021/06/18 04:32:32;;;;;;;96.22;58.80;;;;;;;;;;4431003;32;20184;-71
2021/06/18 04:34:57;;;;;;;93.40;56.17;;;;;;;;;;4425993;32;20208;-71
2021/06/18 04:37:22;;;;;;;62.00;43.97;;;;;;;;;;4425246;32;20183;-70
2021/06/18 04:39:48;;;;;;;64.70;44.47;;;;;;;;;;4433457;32;20237;-70
2021/06/18 04:42:13;;;;;;;89.15;55.05;;;;;;;;;;4438600;32;20229;-71
2021/06/18 04:44:39;;;;;;;92.75;56.28;;;;;;;;;;4437288;32;20160;-71
2021/06/18 04:47:04;;;;;;;78.72;51.08;;;;;;;;;;4437014;32;20176;-71
2021/06/18 04:49:29;;;;;;;78.68;52.13;;;;;;;;;;4438822;32;20157;-71
2021/06/18 04:51:54;;;;;;;87.57;54.35;;;;;;;;;;4438267;32;20126;-71
2021/06/18 04:54:21;;;;;;;91.10;60.23;;;;;;;;;;4424174;32;20181;-71
2021/06/18 04:56:47;;;;;;;90.95;58.85;;;;;;;;;;4437556;32;20216;-70
2021/06/18 04:59:12;;;;;;;85.90;52.40;;;;;;;;;;4437103;32;20598;-70
2021/06/18 05:01:37;;;;;;;90.00;59.65;;;;;;;;;;4437368;32;20240;-71
2021/06/18 05:04:02;;;;;;;80.93;55.38;;;;;;;;;;4437692;32;20161;-72
2021/06/18 05:06:27;;;;;;;72.17;50.30;;;;;;;;;;4438264;32;20263;-71
2021/06/18 05:08:52;;;;;;;66.43;47.07;;;;;;;;;;4438476;32;20630;-70
2021/06/18 05:11:23;;;;;;;65.07;44.80;;;;;;;;;;4438018;32;20233;-70
2021/06/18 05:13:48;;;;;;;57.28;42.28;;;;;;;;;;4437126;32;20147;-71
2021/06/18 05:16:14;;;;;;;58.03;41.28;;;;;;;;;;4438082;32;20126;-69
2021/06/18 05:18:39;;;;;;;55.70;42.90;;;;;;;;;;4437078;32;20210;-69
2021/06/18 05:21:04;;;;;;;63.25;46.63;;;;;;;;;;4435991;32;20582;-70
2021/06/18 05:23:29;;;;;;;52.25;40.70;;;;;;;;;;4433189;32;20355;-68
2021/06/18 05:25:55;;;;;;;63.07;47.77;;;;;;;;;;4426262;32;20134;-70
2021/06/18 05:28:20;;;;;;;54.60;42.62;;;;;;;;;;4436195;32;20260;-70
2021/06/18 05:30:45;;;;;;;55.95;44.70;;;;;;;;;;4438363;32;20134;-71
2021/06/18 05:33:10;;;;;;;52.00;40.17;;;;;;;;;;4436198;32;20129;-69
2021/06/18 05:35:35;;;;;;;49.38;39.10;;;;;;;;;;4438233;32;20251;-70
2021/06/18 05:38:01;;;;;;;44.40;37.97;;;;;;;;;;4437521;32;20233;-70
2021/06/18 05:40:26;;;;;;;51.97;38.70;;;;;;;;;;4435828;32;20486;-69
2021/06/18 05:42:51;;;;;;;44.42;37.63;;;;;;;;;;4436252;32;20183;-70
2021/06/18 05:45:16;;;;;;;44.42;33.72;;;;;;;;;;4435751;32;20126;-70
2021/06/18 05:47:41;;;;;;;40.10;31.93;;;;;;;;;;4436040;32;20217;-70
2021/06/18 05:50:07;;;;;;;36.40;29.90;;;;;;;;;;4435641;32;20226;-69
2021/06/18 05:52:32;;;;;;;36.78;29.40;;;;;;;;;;4435741;32;20270;-70
2021/06/18 05:54:58;;;;;;;36.80;31.85;;;;;;;;;;4437517;32;20592;-69
2021/06/18 05:57:23;;;;;;;34.90;27.40;;;;;;;;;;4435882;32;20309;-70
2021/06/18 05:59:48;;;;;;;31.87;28.42;;;;;;;;;;4435806;32;20200;-69
2021/06/18 06:02:13;;;;;;;32.85;27.65;;;;;;;;;;4432925;32;20567;-69
2021/06/18 06:04:38;;;;;;;33.42;28.35;;;;;;;;;;4419756;32;20241;-70
2021/06/18 06:07:03;;;;;;;36.08;29.20;;;;;;;;;;4432599;32;20271;-70
2021/06/18 06:09:29;;;;;;;30.45;27.15;;;;;;;;;;4436955;32;21803;-70
2021/06/18 06:11:54;;;;;;;31.98;26.83;;;;;;;;;;4436939;32;20142;-70
2021/06/18 06:14:20;;;;;;;31.58;26.98;;;;;;;;;;4436595;32;20217;-71
2021/06/18 06:16:46;;;;;;;33.10;28.17;;;;;;;;;;4421061;32;20546;-70
2021/06/18 06:19:11;;;;;;;33.13;27.92;;;;;;;;;;4422914;32;20215;-69
2021/06/18 06:21:36;;;;;;;35.58;29.10;;;;;;;;;;4436540;32;20274;-71
2021/06/18 06:24:02;;;;;;;34.50;29.35;;;;;;;;;;4420682;32;20161;-71
2021/06/18 06:26:27;;;;;;;36.53;30.23;;;;;;;;;;4434846;32;20527;-70
2021/06/18 06:28:52;;;;;;;41.47;35.58;;;;;;;;;;4436313;32;20125;-71
2021/06/18 06:31:17;;;;;;;38.50;33.15;;;;;;;;;;4434856;32;20161;-71
2021/06/18 06:33:42;;;;;;;40.47;33.92;;;;;;;;;;4436389;32;20152;-71
2021/06/18 06:36:08;;;;;;;39.20;33.78;;;;;;;;;;4436854;32;20129;-71
2021/06/18 06:38:34;;;;;;;40.10;34.92;;;;;;;;;;4437181;32;20129;-71
2021/06/18 06:40:59;;;;;;;45.55;37.53;;;;;;;;;;4435781;32;20424;-71
2021/06/18 06:43:24;;;;;;;44.33;37.17;;;;;;;;;;4435617;32;20156;-72
2021/06/18 06:45:50;;;;;;;45.58;36.90;;;;;;;;;;4436791;32;20624;-73
2021/06/18 06:48:15;;;;;;;41.83;35.80;;;;;;;;;;4431986;32;20182;-71
2021/06/18 06:50:40;;;;;;;47.95;38.22;;;;;;;;;;4408367;32;20161;-71
2021/06/18 06:53:09;;;;;;;44.00;36.08;;;;;;;;;;4419271;32;20484;-71
2021/06/18 06:55:34;;;;;;;44.50;38.13;;;;;;;;;;4405554;32;20214;-71
2021/06/18 06:57:59;;;;;;;43.47;37.80;;;;;;;;;;4405792;32;20489;-71
2021/06/18 07:00:24;;;;;;;44.83;35.53;;;;;;;;;;4426748;32;20602;-72
2021/06/18 07:02:50;;;;;;;46.05;36.10;;;;;;;;;;4434628;32;20173;-72
2021/06/18 07:05:15;;;;;;;43.60;35.35;;;;;;;;;;4435163;32;20593;-72
2021/06/18 07:07:40;;;;;;;35.97;32.13;;;;;;;;;;4435761;32;20661;-72
2021/06/18 07:10:06;;;;;;;38.97;34.78;;;;;;;;;;4436712;32;20165;-73
2021/06/18 07:12:31;;;;;;;39.90;34.85;;;;;;;;;;4421949;32;20235;-73
2021/06/18 07:14:56;;;;;;;35.47;31.27;;;;;;;;;;4436429;32;20200;-73
2021/06/18 07:17:22;;;;;;;35.63;31.48;;;;;;;;;;4428700;32;20245;-72
2021/06/18 07:19:48;;;;;;;35.35;30.08;;;;;;;;;;4424765;32;20205;-72
2021/06/18 07:22:19;;;;;;;36.85;29.52;;;;;;;;;;4423499;32;20233;-72
2021/06/18 07:24:44;;;;;;;30.90;27.30;;;;;;;;;;4421081;32;20142;-72
2021/06/18 07:27:09;;;;;;;31.30;25.45;;;;;;;;;;4405973;32;20153;-73
2021/06/18 07:29:34;;;;;;;35.20;30.30;;;;;;;;;;4418467;32;20154;-72
2021/06/18 07:31:59;;;;;;;26.87;23.62;;;;;;;;;;4419421;32;21214;-71
2021/06/18 07:34:25;;;;;;;28.05;25.15;;;;;;;;;;4404975;32;20557;-71
2021/06/18 07:36:50;;;;;;;28.30;25.30;;;;;;;;;;4412538;32;20213;-72
2021/06/18 07:39:15;;;;;;;28.33;24.83;;;;;;;;;;4418755;32;20248;-73
2021/06/18 07:41:40;;;;;;;26.62;23.67;;;;;;;;;;4430387;32;20288;-72
2021/06/18 07:44:06;;;;;;;34.42;27.58;;;;;;;;;;4434569;32;20172;-72
2021/06/18 07:46:32;;;;;;;31.17;27.73;;;;;;;;;;4435580;32;20176;-72
2021/06/18 07:48:57;;;;;;;34.63;27.67;;;;;;;;;;4434889;32;20127;-71
2021/06/18 07:51:22;;;;;;;32.00;26.05;;;;;;;;;;4434501;32;20137;-72
2021/06/18 07:53:48;;;;;;;29.08;24.73;;;;;;;;;;4435656;32;20942;-72
2021/06/18 07:56:14;;;;;;;29.33;24.27;;;;;;;;;;4436295;32;20161;-74
2021/06/18 07:58:39;;;;;;;30.27;26.87;;;;;;;;;;4420898;32;20161;-72
2021/06/18 08:01:04;;;;;;;30.23;26.70;;;;;;;;;;4431804;32;20141;-72
2021/06/18 08:03:29;;;;;;;35.38;29.83;;;;;;;;;;4431744;32;20149;-72
2021/06/18 08:05:56;;;;;;;38.97;32.10;;;;;;;;;;4432643;32;20724;-71
2021/06/18 08:08:21;;;;;;;34.20;29.45;;;;;;;;;;4433975;32;20314;-72
2021/06/18 08:10:46;;;;;;;36.63;32.83;;;;;;;;;;4430970;32;20149;-71
2021/06/18 08:13:11;;;;;;;30.05;26.58;;;;;;;;;;4418975;32;20567;-73
2021/06/18 08:15:37;;;;;;;30.90;27.67;;;;;;;;;;4416098;32;20316;-71
2021/06/18 08:18:02;;;;;;;31.00;27.47;;;;;;;;;;4418757;32;20256;-72
2021/06/18 08:20:27;;;;;;;28.73;25.67;;;;;;;;;;4432656;32;20595;-73
2021/06/18 08:22:57;;;;;;;26.33;23.50;;;;;;;;;;4432637;32;20149;-72
2021/06/18 08:25:23;;;;;;;24.05;21.45;;;;;;;;;;4431216;32;20273;-72
2021/06/18 08:27:48;;;;;;;25.52;22.90;;;;;;;;;;4433388;32;20180;-72
2021/06/18 08:30:15;;;;;;;22.58;20.20;;;;;;;;;;4431972;32;20182;-73
2021/06/18 08:32:40;;;;;;;21.23;19.00;;;;;;;;;;4432361;32;20143;-72
2021/06/18 08:35:05;;;;;;;19.73;17.70;;;;;;;;;;4433491;32;20179;-72
2021/06/18 08:37:30;;;;;;;22.50;20.30;;;;;;;;;;4432347;32;20298;-73
2021/06/18 08:39:56;;;;;;;23.33;21.03;;;;;;;;;;4433127;32;20145;-73
2021/06/18 08:42:21;;;;;;;19.67;17.58;;;;;;;;;;4417728;32;20352;-73
2021/06/18 08:44:46;;;;;;;21.20;19.10;;;;;;;;;;4431579;32;20134;-74
2021/06/18 08:47:12;;;;;;;22.83;20.20;;;;;;;;;;4431785;32;20160;-73
2021/06/18 08:49:38;;;;;;;19.95;17.67;;;;;;;;;;4431195;32;20137;-72
2021/06/18 08:52:03;;;;;;;18.48;15.18;;;;;;;;;;4433207;32;20177;-73
2021/06/18 08:54:44;;;;;;;15.90;14.20;;;;;;;;;;4416562;32;20211;-72
2021/06/18 08:57:14;;;;;;;17.10;15.25;;;;;;;;;;4431926;32;20154;-73
2021/06/18 08:59:40;;;;;;;16.40;14.70;;;;;;;;;;4430457;32;20164;-72
2021/06/18 09:02:05;;;;;;;16.00;12.90;;;;;;;;;;4431923;32;20150;-72
2021/06/18 09:04:30;;;;;;;15.23;12.80;;;;;;;;;;4415891;32;20211;-72
2021/06/18 09:06:59;;;;;;;15.40;12.70;;;;;;;;;;4417134;32;20172;-71
2021/06/18 09:09:25;;;;;;;12.93;11.63;;;;;;;;;;4416084;32;20237;-72
2021/06/18 09:12:03;;;;;;;14.30;12.27;;;;;;;;;;4418390;32;21174;-72
2021/06/18 09:14:33;;;;;;;14.35;11.77;;;;;;;;;;4430520;32;20220;-71
2021/06/18 09:17:10;;;;;;;15.63;11.90;;;;;;;;;;4430959;32;20184;-71
2021/06/18 09:19:37;;;;;;;14.52;12.63;;;;;;;;;;4416103;32;20176;-71
2021/06/18 09:22:13;;;;;;;14.20;12.23;;;;;;;;;;4430615;32;20146;-71
2021/06/18 09:24:40;;;;;;;12.32;11.12;;;;;;;;;;4430479;32;20517;-72
2021/06/18 09:27:05;;;;;;;13.90;11.40;;;;;;;;;;4430485;32;20137;-72
2021/06/18 09:29:31;;;;;;;11.10;9.90;;;;;;;;;;4430008;32;20203;-72
2021/06/18 09:32:00;;;;;;;11.88;9.75;;;;;;;;;;4419699;32;20587;-72
2021/06/18 09:34:59;;;;;;;11.52;10.38;;;;;;;;;;4429532;32;20169;-72
2021/06/18 09:37:29;;;;;;;14.68;10.55;;;;;;;;;;4430161;32;20176;-72
2021/06/18 09:39:56;;;;;;;13.55;9.70;;;;;;;;;;4415235;32;20161;-72
2021/06/18 09:42:24;;;;;;;12.18;10.80;;;;;;;;;;4429329;32;20211;-72
2021/06/18 09:45:18;;;;;;;13.52;10.35;;;;;;;;;;4415366;32;20810;-72
2021/06/18 09:47:43;;;;;;;10.88;9.77;;;;;;;;;;4404838;32;20173;-72
2021/06/18 09:50:15;;;;;;;12.55;9.95;;;;;;;;;;4423548;32;20680;-72
2021/06/18 09:52:41;;;;;;;11.57;10.35;;;;;;;;;;4429360;32;20165;-72
2021/06/18 09:55:06;;;;;;;13.60;10.77;;;;;;;;;;4415479;32;20158;-72
2021/06/18 09:57:36;;;;;;;12.55;10.80;;;;;;;;;;4427710;32;20444;-72
2021/06/18 10:00:04;;;;;;;14.40;10.60;;;;;;;;;;4428397;32;20625;-72
2021/06/18 10:02:39;;;;;;;15.02;10.70;;;;;;;;;;4427640;32;21046;-72
2021/06/18 10:05:05;;;;;;;13.40;10.98;;;;;;;;;;4414636;32;20138;-71
2021/06/18 10:07:31;;;;;;;11.93;10.73;;;;;;;;;;4419371;32;20430;-71
2021/06/18 10:09:58;;;;;;;12.63;10.80;;;;;;;;;;4429767;32;20217;-72
2021/06/18 10:12:23;;;;;;;12.18;10.98;;;;;;;;;;4430886;32;20582;-71
2021/06/18 10:14:49;;;;;;;13.05;10.38;;;;;;;;;;4429416;32;20133;-71
2021/06/18 10:17:14;;;;;;;11.10;9.55;;;;;;;;;;4431756;32;20172;-71
2021/06/18 10:19:39;;;;;;;12.35;11.05;;;;;;;;;;4430050;32;20187;-72
2021/06/18 10:22:11;;;;;;;12.27;10.27;;;;;;;;;;4428842;32;20233;-71
2021/06/18 10:24:37;;;;;;;12.23;10.93;;;;;;;;;;4430387;32;20263;-72
2021/06/18 10:27:04;;;;;;;12.23;11.02;;;;;;;;;;4429138;32;20482;-71
2021/06/18 10:29:30;;;;;;;12.98;11.10;;;;;;;;;;4415926;32;20176;-71
2021/06/18 10:31:55;;;;;;;11.38;10.07;;;;;;;;;;4419285;32;20150;-71
2021/06/18 10:34:35;;;;;;;13.13;11.33;;;;;;;;;;4429730;32;20954;-72
2021/06/18 10:37:16;;;;;;;10.82;9.65;;;;;;;;;;4415945;32;20314;-72
2021/06/18 10:39:49;;;;;;;14.23;11.18;;;;;;;;;;4415951;32;20192;-72
2021/06/18 10:42:16;;;;;;;15.95;14.18;;;;;;;;;;4407186;32;20687;-72
2021/06/18 10:44:42;;;;;;;16.65;14.85;;;;;;;;;;4429749;32;20280;-72
2021/06/18 10:47:22;;;;;;;16.23;14.65;;;;;;;;;;4414866;32;20157;-72
2021/06/18 10:49:48;;;;;;;19.40;15.57;;;;;;;;;;4431105;32;20129;-73
2021/06/18 10:52:14;;;;;;;16.15;14.45;;;;;;;;;;4431451;32;20149;-71
2021/06/18 10:54:51;;;;;;;18.87;16.87;;;;;;;;;;4418479;32;20183;-72
2021/06/18 10:57:17;;;;;;;18.05;16.23;;;;;;;;;;4412591;32;20169;-71
2021/06/18 10:59:44;;;;;;;21.05;18.90;;;;;;;;;;4429830;32;20202;-72
2021/06/18 11:04:56;;;;;;;20.45;18.45;;;;;;;;;;4416181;32;20623;-72
2021/06/18 11:07:21;;;;;;;20.08;17.92;;;;;;;;;;4421889;32;20188;-73
2021/06/18 11:09:47;;;;;;;17.77;16.00;;;;;;;;;;4405589;32;21101;-72
2021/06/18 11:12:22;;;;;;;19.37;17.42;;;;;;;;;;4419029;32;20748;-72
2021/06/18 11:14:47;;;;;;;21.90;19.80;;;;;;;;;;4428786;32;20153;-72
2021/06/18 11:17:31;;;;;;;24.90;22.48;;;;;;;;;;4417122;32;20164;-71
2021/06/18 11:19:57;;;;;;;23.48;20.98;;;;;;;;;;4411972;32;20655;-71
2021/06/18 11:22:37;;;;;;;23.17;20.83;;;;;;;;;;4433068;32;20133;-71
2021/06/18 11:25:04;;;;;;;24.15;21.62;;;;;;;;;;4432030;32;20141;-72
2021/06/18 11:27:32;;;;;;;28.00;24.48;;;;;;;;;;4418977;32;20169;-72
2021/06/18 11:30:16;;;;;;;24.50;22.02;;;;;;;;;;4416895;32;20253;-73
2021/06/18 11:32:44;;;;;;;25.98;23.25;;;;;;;;;;4418127;32;20273;-72
2021/06/18 11:35:29;;;;;;;25.77;23.12;;;;;;;;;;4416857;32;20194;-72
2021/06/18 11:37:54;;;;;;;25.37;22.98;;;;;;;;;;4420443;32;20142;-72
2021/06/18 11:40:23;;;;;;;27.92;24.95;;;;;;;;;;4432318;32;20175;-72
2021/06/18 11:42:48;;;;;;;27.58;24.77;;;;;;;;;;4417638;32;20696;-71
2021/06/18 11:45:13;;;;;;;30.17;27.05;;;;;;;;;;4433544;32;20138;-72
2021/06/18 11:47:38;;;;;;;27.08;24.40;;;;;;;;;;4431226;32;20138;-72
2021/06/18 11:50:04;;;;;;;27.85;24.92;;;;;;;;;;4415138;32;20845;-72
2021/06/18 11:52:29;;;;;;;29.80;26.85;;;;;;;;;;4416462;32;20193;-72
2021/06/18 11:54:57;;;;;;;27.03;24.40;;;;;;;;;;4427052;32;20145;-72
2021/06/18 11:57:22;;;;;;;29.30;26.35;;;;;;;;;;4432931;32;20319;-72
2021/06/18 11:59:54;;;;;;;29.80;26.70;;;;;;;;;;4433057;32;20133;-72
2021/06/18 12:02:20;;;;;;;29.52;26.48;;;;;;;;;;4422652;32;20339;-72
2021/06/18 12:04:46;;;;;;;27.27;24.58;;;;;;;;;;4417189;32;20166;-72
2021/06/18 12:07:11;;;;;;;26.40;23.70;;;;;;;;;;4430954;32;20180;-72
2021/06/18 12:09:37;;;;;;;24.05;21.58;;;;;;;;;;4416738;32;20222;-72
2021/06/18 12:12:02;;;;;;;28.58;25.52;;;;;;;;;;4431376;32;20169;-72
2021/06/18 12:14:35;;;;;;;26.30;23.48;;;;;;;;;;4416965;32;20555;-72
2021/06/18 12:17:01;;;;;;;25.80;23.00;;;;;;;;;;4431616;32;20676;-72
2021/06/18 12:19:27;;;;;;;22.50;20.12;;;;;;;;;;4433288;32;20145;-72
2021/06/18 12:22:02;;;;;;;23.60;20.85;;;;;;;;;;4432757;32;20621;-73
2021/06/18 12:24:28;;;;;;;22.00;19.73;;;;;;;;;;4409122;32;20329;-72
2021/06/18 12:26:54;;;;;;;18.23;16.30;;;;;;;;;;4422965;32;20632;-72
2021/06/18 12:29:19;;;;;;;20.10;16.12;;;;;;;;;;4417258;32;20149;-72
2021/06/18 12:31:45;;;;;;;18.10;15.93;;;;;;;;;;4430135;32;20206;-73
2021/06/18 12:34:11;;;;;;;17.52;15.70;;;;;;;;;;4416503;32;20322;-73
2021/06/18 12:36:36;;;;;;;16.05;14.35;;;;;;;;;;4429502;32;20659;-73
2021/06/18 12:39:11;;;;;;;17.87;16.17;;;;;;;;;;4421485;32;20149;-73
2021/06/18 12:41:37;;;;;;;11.23;9.73;;;;;;;;;;4422322;32;20326;-73
2021/06/18 12:44:02;;;;;;;11.25;10.05;;;;;;;;;;4421963;32;20206;-73
2021/06/18 12:46:28;;;;;;;11.90;10.63;;;;;;;;;;4432070;32;20203;-72
2021/06/18 12:48:53;;;;;;;14.00;11.60;;;;;;;;;;4431383;32;20160;-73
2021/06/18 12:51:19;;;;;;;10.87;9.70;;;;;;;;;;4417830;32;20709;-72
2021/06/18 12:53:45;;;;;;;12.15;10.32;;;;;;;;;;4431467;32;20322;-72
2021/06/18 12:56:17;;;;;;;11.55;9.07;;;;;;;;;;4432263;32;20170;-73
2021/06/18 12:58:43;;;;;;;14.60;9.88;;;;;;;;;;4421326;32;20166;-72
2021/06/18 13:01:10;;;;;;;14.80;10.35;;;;;;;;;;4416733;32;20177;-72
2021/06/18 13:03:37;;;;;;;11.60;10.18;;;;;;;;;;4420775;32;20173;-73
2021/06/18 13:06:05;;;;;;;11.85;8.85;;;;;;;;;;4425337;32;20649;-72
2021/06/18 13:08:31;;;;;;;9.13;8.10;;;;;;;;;;4430634;32;20161;-73
2021/06/18 13:10:57;;;;;;;9.20;8.00;;;;;;;;;;4432784;32;20142;-72
2021/06/18 13:13:23;;;;;;;11.85;8.18;;;;;;;;;;4431904;32;20149;-73
2021/06/18 13:15:49;;;;;;;20.00;8.98;;;;;;;;;;4432816;32;20627;-73
2021/06/18 13:18:14;;;;;;;11.07;8.30;;;;;;;;;;4416637;32;20169;-72
2021/06/18 13:20:40;;;;;;;12.20;7.85;;;;;;;;;;4431762;32;20176;-72
2021/06/18 13:23:23;;;;;;;9.85;7.15;;;;;;;;;;4417043;32;20481;-73
2021/06/18 13:25:48;;;;;;;11.18;7.18;;;;;;;;;;4414974;32;20657;-72
2021/06/18 13:28:33;;;;;;;11.27;7.57;;;;;;;;;;4429790;32;20209;-72
2021/06/18 13:30:59;;;;;;;10.20;9.05;;;;;;;;;;4430342;32;20145;-70
2021/06/18 13:33:24;;;;;;;10.32;6.70;;;;;;;;;;4430044;32;20206;-71
2021/06/18 13:35:50;;;;;;;7.55;5.97;;;;;;;;;;4415407;32;20185;-71
2021/06/18 13:38:15;;;;;;;10.70;8.23;;;;;;;;;;4430122;32;20621;-71
2021/06/18 13:40:51;;;;;;;11.38;8.80;;;;;;;;;;4429966;32;20341;-72
2021/06/18 13:43:16;;;;;;;14.90;9.55;;;;;;;;;;4430106;32;20142;-73
2021/06/18 13:45:42;;;;;;;10.70;7.93;;;;;;;;;;4431177;32;20176;-72
2021/06/18 13:48:07;;;;;;;14.18;7.80;;;;;;;;;;4430927;32;20457;-72
2021/06/18 13:50:39;;;;;;;8.43;6.07;;;;;;;;;;4428476;32;20977;-72
2021/06/18 13:53:05;;;;;;;8.68;5.53;;;;;;;;;;4422128;32;20291;-72
2021/06/18 13:55:30;;;;;;;8.68;5.53;;;;;;;;;;4430248;32;20177;-70
2021/06/18 13:57:55;;;;;;;10.48;6.72;;;;;;;;;;4420068;32;20157;-70
2021/06/18 14:00:21;;;;;;;8.77;5.83;;;;;;;;;;4430651;32;20294;-72
2021/06/18 14:02:46;;;;;;;10.80;6.70;;;;;;;;;;4415880;32;20174;-72
2021/06/18 14:05:11;;;;;;;8.00;5.23;;;;;;;;;;4415597;32;20641;-71
2021/06/18 14:07:37;;;;;;;7.00;5.60;;;;;;;;;;4416641;32;20184;-71
2021/06/18 14:10:03;;;;;;;8.77;4.97;;;;;;;;;;4430905;32;20154;-72
2021/06/18 14:12:28;;;;;;;8.13;5.40;;;;;;;;;;4431805;32;20313;-71
2021/06/18 14:17:22;;;;;;;8.35;5.95;;;;;;;;;;4430209;32;20209;-72
2021/06/18 14:19:48;;;;;;;11.53;7.50;;;;;;;;;;4431503;32;20146;-72
2021/06/18 14:22:13;;;;;;;11.30;7.32;;;;;;;;;;4429224;32;20260;-73